sensor_id;sensor_type;location;lat;lon;timestamp;pressure;altitude;pressure_sealevel;temperature;humidity
29045;BME280;16133;49.486;12.176;2023-03-22T00:01:26;97117.06;;;7.15;100.00
29045;BME280;16133;49.486;12.176;2023-03-22T00:03:55;97140.81;;;7.32;100.00
29045;BME280;16133;49.486;12.176;2023-03-22T00:06:21;97141.44;;;7.34;100.00
29045;BME280;16133;49.486;12.176;2023-03-22T00:08:51;97136.16;;;7.34;100.00
29045;BME280;16133;49.486;12.176;2023-03-22T00:11:19;97108.97;;;7.17;100.00
29045;BME280;16133;49.486;12.176;2023-03-22T00:13:45;97132.06;;;7.23;100.00
29045;BME280;16133;49.486;12.176;2023-03-22T00:16:12;97132.88;;;7.15;100.00
29045;BME280;16133;49.486;12.176;2023-03-22T00:18:38;97139.97;;;7.07;100.00
29045;BME280;16133;49.486;12.176;2023-03-22T00:21:04;97145.56;;;6.88;100.00
29045;BME280;16133;49.486;12.176;2023-03-22T00:23:30;97160.72;;;6.78;100.00
29045;BME280;16133;49.486;12.176;2023-03-22T00:25:56;97162.16;;;6.72;100.00
29045;BME280;16133;49.486;12.176;2023-03-22T00:28:22;97155.91;;;6.73;100.00
29045;BME280;16133;49.486;12.176;2023-03-22T00:30:54;97141.56;;;6.76;100.00
29045;BME280;16133;49.486;12.176;2023-03-22T00:33:20;97131.88;;;6.84;100.00
29045;BME280;16133;49.486;12.176;2023-03-22T00:38:15;97119.34;;;6.94;100.00
29045;BME280;16133;49.486;12.176;2023-03-22T00:40:40;97120.66;;;6.98;100.00
29045;BME280;16133;49.486;12.176;2023-03-22T00:43:07;97114.75;;;7.04;100.00
29045;BME280;16133;49.486;12.176;2023-03-22T00:45:32;97111.09;;;7.05;100.00
29045;BME280;16133;49.486;12.176;2023-03-22T00:48:00;97083.91;;;6.97;100.00
29045;BME280;16133;49.486;12.176;2023-03-22T00:50:26;97066.59;;;6.94;100.00
29045;BME280;16133;49.486;12.176;2023-03-22T00:52:51;97102.34;;;7.21;100.00
29045;BME280;16133;49.486;12.176;2023-03-22T00:55:17;97102.84;;;7.25;100.00
29045;BME280;16133;49.486;12.176;2023-03-22T00:57:42;97093.63;;;7.29;100.00
29045;BME280;16133;49.486;12.176;2023-03-22T01:00:08;97091.66;;;7.22;100.00
29045;BME280;16133;49.486;12.176;2023-03-22T01:02:37;97077.81;;;7.20;100.00
29045;BME280;16133;49.486;12.176;2023-03-22T01:05:02;97103.81;;;7.40;100.00
29045;BME280;16133;49.486;12.176;2023-03-22T01:07:29;97111.44;;;7.43;100.00
29045;BME280;16133;49.486;12.176;2023-03-22T01:09:55;97091.97;;;7.36;100.00
29045;BME280;16133;49.486;12.176;2023-03-22T01:12:20;97062.13;;;7.19;100.00
29045;BME280;16133;49.486;12.176;2023-03-22T01:14:46;97113.03;;;7.52;100.00
29045;BME280;16133;49.486;12.176;2023-03-22T01:17:11;97111.09;;;7.54;100.00
29045;BME280;16133;49.486;12.176;2023-03-22T01:19:37;97104.97;;;7.53;100.00
29045;BME280;16133;49.486;12.176;2023-03-22T01:22:04;97102.19;;;7.55;100.00
29045;BME280;16133;49.486;12.176;2023-03-22T01:24:30;97114.69;;;7.61;100.00
29045;BME280;16133;49.486;12.176;2023-03-22T01:26:56;97112.41;;;7.58;100.00
29045;BME280;16133;49.486;12.176;2023-03-22T01:29:21;97115.34;;;7.63;100.00
29045;BME280;16133;49.486;12.176;2023-03-22T01:31:47;97117.81;;;7.64;100.00
29045;BME280;16133;49.486;12.176;2023-03-22T01:34:12;97087.00;;;7.49;100.00
29045;BME280;16133;49.486;12.176;2023-03-22T01:36:38;97071.00;;;7.42;100.00
29045;BME280;16133;49.486;12.176;2023-03-22T01:39:03;97106.63;;;7.54;100.00
29045;BME280;16133;49.486;12.176;2023-03-22T01:41:29;97115.19;;;7.64;100.00
29045;BME280;16133;49.486;12.176;2023-03-22T01:44:17;97112.53;;;7.64;100.00
29045;BME280;16133;49.486;12.176;2023-03-22T01:46:43;97117.19;;;7.62;100.00
29045;BME280;16133;49.486;12.176;2023-03-22T01:49:16;97113.72;;;7.62;100.00
29045;BME280;16133;49.486;12.176;2023-03-22T01:51:45;97082.88;;;7.46;100.00
29045;BME280;16133;49.486;12.176;2023-03-22T01:54:32;97103.31;;;7.60;100.00
29045;BME280;16133;49.486;12.176;2023-03-22T01:57:00;97104.28;;;7.59;100.00
29045;BME280;16133;49.486;12.176;2023-03-22T01:59:26;97100.19;;;7.57;100.00
29045;BME280;16133;49.486;12.176;2023-03-22T02:01:52;97070.53;;;7.31;100.00
29045;BME280;16133;49.486;12.176;2023-03-22T02:04:20;97100.06;;;7.34;100.00
29045;BME280;16133;49.486;12.176;2023-03-22T02:06:53;97087.06;;;7.16;100.00
29045;BME280;16133;49.486;12.176;2023-03-22T02:09:19;97080.75;;;7.09;100.00
29045;BME280;16133;49.486;12.176;2023-03-22T02:17:53;97103.00;;;6.74;100.00
29045;BME280;16133;49.486;12.176;2023-03-22T02:48:05;97085.91;;;5.19;100.00
29045;BME280;16133;49.486;12.176;2023-03-22T02:56:11;97086.56;;;4.77;100.00
29045;BME280;16133;49.486;12.176;2023-03-22T02:58:40;97085.97;;;4.66;100.00
29045;BME280;16133;49.486;12.176;2023-03-22T03:01:18;97083.41;;;4.56;100.00
29045;BME280;16133;49.486;12.176;2023-03-22T03:03:48;97078.91;;;4.49;100.00
29045;BME280;16133;49.486;12.176;2023-03-22T03:06:20;97073.59;;;4.41;100.00
29045;BME280;16133;49.486;12.176;2023-03-22T03:08:47;97066.47;;;4.33;100.00
29045;BME280;16133;49.486;12.176;2023-03-22T03:11:19;97069.81;;;4.25;100.00
29045;BME280;16133;49.486;12.176;2023-03-22T03:13:48;97066.53;;;4.23;100.00
29045;BME280;16133;49.486;12.176;2023-03-22T03:16:16;97060.28;;;4.24;100.00
29045;BME280;16133;49.486;12.176;2023-03-22T03:19:04;97050.72;;;4.33;100.00
29045;BME280;16133;49.486;12.176;2023-03-22T03:21:38;97033.88;;;4.44;100.00
29045;BME280;16133;49.486;12.176;2023-03-22T03:24:27;97010.84;;;4.55;100.00
29045;BME280;16133;49.486;12.176;2023-03-22T03:27:18;96982.97;;;4.62;100.00
29045;BME280;16133;49.486;12.176;2023-03-22T03:34:55;96973.47;;;4.44;100.00
29045;BME280;16133;49.486;12.176;2023-03-22T03:37:36;96984.75;;;4.36;100.00
29045;BME280;16133;49.486;12.176;2023-03-22T03:40:09;96994.34;;;4.27;100.00
29045;BME280;16133;49.486;12.176;2023-03-22T03:42:39;96995.09;;;4.20;100.00
29045;BME280;16133;49.486;12.176;2023-03-22T03:45:07;97008.28;;;4.10;100.00
29045;BME280;16133;49.486;12.176;2023-03-22T03:47:33;97007.53;;;4.00;100.00
29045;BME280;16133;49.486;12.176;2023-03-22T03:49:59;97012.03;;;3.90;100.00
29045;BME280;16133;49.486;12.176;2023-03-22T03:52:24;97017.19;;;3.82;100.00
29045;BME280;16133;49.486;12.176;2023-03-22T03:54:50;97028.72;;;3.71;100.00
29045;BME280;16133;49.486;12.176;2023-03-22T03:57:16;97026.81;;;3.64;100.00
29045;BME280;16133;49.486;12.176;2023-03-22T03:59:41;97031.97;;;3.56;100.00
29045;BME280;16133;49.486;12.176;2023-03-22T04:02:07;97029.25;;;3.48;100.00
29045;BME280;16133;49.486;12.176;2023-03-22T04:04:32;97029.97;;;3.40;100.00
29045;BME280;16133;49.486;12.176;2023-03-22T04:07:00;97031.34;;;3.34;100.00
29045;BME280;16133;49.486;12.176;2023-03-22T04:09:31;97026.00;;;3.26;100.00
29045;BME280;16133;49.486;12.176;2023-03-22T04:11:57;97034.31;;;3.22;100.00
29045;BME280;16133;49.486;12.176;2023-03-22T04:14:24;97036.66;;;3.15;100.00
29045;BME280;16133;49.486;12.176;2023-03-22T04:16:50;97046.78;;;3.10;100.00
29045;BME280;16133;49.486;12.176;2023-03-22T04:19:16;97039.16;;;3.07;100.00
29045;BME280;16133;49.486;12.176;2023-03-22T04:21:41;97036.72;;;3.06;100.00
29045;BME280;16133;49.486;12.176;2023-03-22T04:24:07;97028.44;;;3.10;100.00
29045;BME280;16133;49.486;12.176;2023-03-22T04:26:33;97021.53;;;3.09;100.00
29045;BME280;16133;49.486;12.176;2023-03-22T04:28:59;97029.50;;;3.08;100.00
29045;BME280;16133;49.486;12.176;2023-03-22T04:31:27;97025.69;;;3.02;100.00
29045;BME280;16133;49.486;12.176;2023-03-22T04:33:52;97023.63;;;2.96;100.00
29045;BME280;16133;49.486;12.176;2023-03-22T04:36:24;97024.03;;;2.92;100.00
29045;BME280;16133;49.486;12.176;2023-03-22T04:38:50;97020.19;;;2.86;100.00
29045;BME280;16133;49.486;12.176;2023-03-22T04:41:16;97021.75;;;2.79;100.00
29045;BME280;16133;49.486;12.176;2023-03-22T04:43:42;97033.31;;;2.76;100.00
29045;BME280;16133;49.486;12.176;2023-03-22T04:46:11;97023.13;;;2.73;100.00
29045;BME280;16133;49.486;12.176;2023-03-22T04:48:38;97037.47;;;2.69;100.00
29045;BME280;16133;49.486;12.176;2023-03-22T04:51:05;97036.25;;;2.64;100.00
29045;BME280;16133;49.486;12.176;2023-03-22T04:53:31;97031.53;;;2.58;100.00
29045;BME280;16133;49.486;12.176;2023-03-22T04:55:56;97036.53;;;2.51;100.00
29045;BME280;16133;49.486;12.176;2023-03-22T04:58:23;97030.72;;;2.48;100.00
29045;BME280;16133;49.486;12.176;2023-03-22T05:00:50;97031.84;;;2.45;100.00
29045;BME280;16133;49.486;12.176;2023-03-22T05:03:18;97033.75;;;2.43;100.00
29045;BME280;16133;49.486;12.176;2023-03-22T05:05:59;97033.09;;;2.41;100.00
29045;BME280;16133;49.486;12.176;2023-03-22T05:08:26;97035.16;;;2.37;100.00
29045;BME280;16133;49.486;12.176;2023-03-22T05:10:53;97040.53;;;2.36;100.00
29045;BME280;16133;49.486;12.176;2023-03-22T05:13:19;97032.66;;;2.36;100.00
29045;BME280;16133;49.486;12.176;2023-03-22T05:15:46;97035.84;;;2.39;100.00
29045;BME280;16133;49.486;12.176;2023-03-22T05:18:13;97027.56;;;2.44;100.00
29045;BME280;16133;49.486;12.176;2023-03-22T05:20:40;97021.91;;;2.49;100.00
29045;BME280;16133;49.486;12.176;2023-03-22T05:23:05;97026.59;;;2.55;100.00
29045;BME280;16133;49.486;12.176;2023-03-22T05:25:31;97018.16;;;2.61;100.00
29045;BME280;16133;49.486;12.176;2023-03-22T05:27:57;97012.94;;;2.70;100.00
29045;BME280;16133;49.486;12.176;2023-03-22T05:30:27;97001.31;;;2.82;100.00
29045;BME280;16133;49.486;12.176;2023-03-22T05:33:00;96983.06;;;3.00;100.00
29045;BME280;16133;49.486;12.176;2023-03-22T05:35:31;96966.97;;;3.22;100.00
29045;BME280;16133;49.486;12.176;2023-03-22T05:37:57;96939.53;;;3.44;100.00
29045;BME280;16133;49.486;12.176;2023-03-22T05:40:23;96935.66;;;3.66;100.00
29045;BME280;16133;49.486;12.176;2023-03-22T05:42:48;96919.78;;;3.85;100.00
29045;BME280;16133;49.486;12.176;2023-03-22T05:45:14;96914.69;;;4.01;100.00
29045;BME280;16133;49.486;12.176;2023-03-22T05:47:40;96912.34;;;4.16;100.00
29045;BME280;16133;49.486;12.176;2023-03-22T05:50:08;96902.44;;;4.27;100.00
29045;BME280;16133;49.486;12.176;2023-03-22T05:52:34;96890.72;;;4.40;100.00
29045;BME280;16133;49.486;12.176;2023-03-22T05:55:00;96889.31;;;4.53;100.00
29045;BME280;16133;49.486;12.176;2023-03-22T05:57:25;96891.06;;;4.70;100.00
29045;BME280;16133;49.486;12.176;2023-03-22T05:59:51;96891.16;;;4.87;100.00
29045;BME280;16133;49.486;12.176;2023-03-22T06:02:18;96882.50;;;5.02;100.00
29045;BME280;16133;49.486;12.176;2023-03-22T06:04:45;96881.22;;;5.14;100.00
29045;BME280;16133;49.486;12.176;2023-03-22T06:07:11;96882.59;;;5.26;100.00
29045;BME280;16133;49.486;12.176;2023-03-22T06:09:36;96877.38;;;5.35;100.00
29045;BME280;16133;49.486;12.176;2023-03-22T06:12:02;96869.97;;;5.38;100.00
29045;BME280;16133;49.486;12.176;2023-03-22T06:14:27;96880.03;;;5.43;100.00
29045;BME280;16133;49.486;12.176;2023-03-22T06:16:52;96870.16;;;5.45;100.00
29045;BME280;16133;49.486;12.176;2023-03-22T06:19:18;96877.75;;;5.48;100.00
29045;BME280;16133;49.486;12.176;2023-03-22T06:21:43;96883.66;;;5.50;100.00
29045;BME280;16133;49.486;12.176;2023-03-22T06:24:09;96889.25;;;5.55;100.00
29045;BME280;16133;49.486;12.176;2023-03-22T06:26:34;96883.53;;;5.59;100.00
29045;BME280;16133;49.486;12.176;2023-03-22T06:28:59;96885.66;;;5.64;100.00
29045;BME280;16133;49.486;12.176;2023-03-22T06:31:28;96884.84;;;5.71;100.00
29045;BME280;16133;49.486;12.176;2023-03-22T06:33:53;96891.91;;;5.79;100.00
29045;BME280;16133;49.486;12.176;2023-03-22T06:36:18;96888.66;;;5.85;100.00
29045;BME280;16133;49.486;12.176;2023-03-22T06:38:44;96880.13;;;5.91;100.00
29045;BME280;16133;49.486;12.176;2023-03-22T06:41:10;96891.81;;;5.97;100.00
29045;BME280;16133;49.486;12.176;2023-03-22T06:43:35;96900.03;;;6.02;100.00
29045;BME280;16133;49.486;12.176;2023-03-22T06:46:01;96919.00;;;6.05;100.00
29045;BME280;16133;49.486;12.176;2023-03-22T06:48:26;96923.75;;;6.10;100.00
29045;BME280;16133;49.486;12.176;2023-03-22T06:50:51;96925.91;;;6.14;100.00
29045;BME280;16133;49.486;12.176;2023-03-22T06:53:17;96937.09;;;6.16;100.00
29045;BME280;16133;49.486;12.176;2023-03-22T06:55:42;96944.69;;;6.19;100.00
29045;BME280;16133;49.486;12.176;2023-03-22T06:58:07;96951.28;;;6.23;100.00
29045;BME280;16133;49.486;12.176;2023-03-22T07:00:33;96958.00;;;6.26;100.00
29045;BME280;16133;49.486;12.176;2023-03-22T07:02:58;96970.03;;;6.29;100.00
29045;BME280;16133;49.486;12.176;2023-03-22T07:05:24;96976.13;;;6.29;100.00
29045;BME280;16133;49.486;12.176;2023-03-22T07:07:49;96986.50;;;6.31;100.00
29045;BME280;16133;49.486;12.176;2023-03-22T07:10:15;96994.91;;;6.34;100.00
29045;BME280;16133;49.486;12.176;2023-03-22T07:12:40;96999.00;;;6.37;100.00
29045;BME280;16133;49.486;12.176;2023-03-22T07:15:06;97000.19;;;6.42;100.00
29045;BME280;16133;49.486;12.176;2023-03-22T07:17:31;97006.94;;;6.45;100.00
29045;BME280;16133;49.486;12.176;2023-03-22T07:19:57;96998.06;;;6.46;100.00
29045;BME280;16133;49.486;12.176;2023-03-22T07:22:23;97007.63;;;6.55;100.00
29045;BME280;16133;49.486;12.176;2023-03-22T07:24:49;97001.69;;;6.61;100.00
29045;BME280;16133;49.486;12.176;2023-03-22T07:27:15;96999.19;;;6.67;100.00
29045;BME280;16133;49.486;12.176;2023-03-22T07:29:40;96992.13;;;6.76;100.00
29045;BME280;16133;49.486;12.176;2023-03-22T07:32:06;96989.31;;;6.86;100.00
29045;BME280;16133;49.486;12.176;2023-03-22T07:34:31;96982.88;;;6.96;100.00
29045;BME280;16133;49.486;12.176;2023-03-22T07:36:57;96978.91;;;7.08;100.00
29045;BME280;16133;49.486;12.176;2023-03-22T07:39:23;96982.13;;;7.27;100.00
29045;BME280;16133;49.486;12.176;2023-03-22T07:41:49;96974.19;;;7.43;100.00
29045;BME280;16133;49.486;12.176;2023-03-22T07:44:15;96967.34;;;7.56;100.00
29045;BME280;16133;49.486;12.176;2023-03-22T07:46:40;96967.28;;;7.73;100.00
29045;BME280;16133;49.486;12.176;2023-03-22T07:49:06;96976.13;;;7.88;100.00
29045;BME280;16133;49.486;12.176;2023-03-22T07:51:31;96988.41;;;8.03;100.00
29045;BME280;16133;49.486;12.176;2023-03-22T07:53:57;97005.16;;;8.18;100.00
29045;BME280;16133;49.486;12.176;2023-03-22T07:56:22;97034.69;;;8.30;100.00
29045;BME280;16133;49.486;12.176;2023-03-22T07:58:47;97040.06;;;8.45;100.00
29045;BME280;16133;49.486;12.176;2023-03-22T08:01:13;97054.88;;;8.54;100.00
29045;BME280;16133;49.486;12.176;2023-03-22T08:03:38;97064.53;;;8.70;100.00
29045;BME280;16133;49.486;12.176;2023-03-22T08:06:05;97076.50;;;8.80;100.00
29045;BME280;16133;49.486;12.176;2023-03-22T08:08:33;97094.97;;;8.88;100.00
29045;BME280;16133;49.486;12.176;2023-03-22T08:10:58;97102.66;;;8.98;100.00
29045;BME280;16133;49.486;12.176;2023-03-22T08:13:24;97111.00;;;9.09;100.00
29045;BME280;16133;49.486;12.176;2023-03-22T08:15:50;97116.19;;;9.26;100.00
29045;BME280;16133;49.486;12.176;2023-03-22T08:18:15;97122.03;;;9.36;100.00
29045;BME280;16133;49.486;12.176;2023-03-22T08:20:41;97125.53;;;9.51;100.00
29045;BME280;16133;49.486;12.176;2023-03-22T08:23:09;97138.34;;;9.62;100.00
29045;BME280;16133;49.486;12.176;2023-03-22T08:25:40;97136.91;;;9.74;100.00
29045;BME280;16133;49.486;12.176;2023-03-22T08:28:05;97139.09;;;9.85;100.00
29045;BME280;16133;49.486;12.176;2023-03-22T08:30:31;97136.66;;;9.98;100.00
29045;BME280;16133;49.486;12.176;2023-03-22T08:32:56;97134.91;;;10.05;100.00
29045;BME280;16133;49.486;12.176;2023-03-22T08:35:21;97131.00;;;10.16;100.00
29045;BME280;16133;49.486;12.176;2023-03-22T08:37:47;97130.38;;;10.29;100.00
29045;BME280;16133;49.486;12.176;2023-03-22T08:40:13;97131.28;;;10.36;100.00
29045;BME280;16133;49.486;12.176;2023-03-22T08:42:38;97131.56;;;10.41;100.00
29045;BME280;16133;49.486;12.176;2023-03-22T08:45:05;97128.16;;;10.47;100.00
29045;BME280;16133;49.486;12.176;2023-03-22T08:47:31;97134.72;;;10.51;100.00
29045;BME280;16133;49.486;12.176;2023-03-22T08:49:56;97132.63;;;10.61;100.00
29045;BME280;16133;49.486;12.176;2023-03-22T08:52:22;97127.00;;;10.71;100.00
29045;BME280;16133;49.486;12.176;2023-03-22T08:54:47;97125.69;;;10.81;100.00
29045;BME280;16133;49.486;12.176;2023-03-22T08:57:13;97115.78;;;10.90;100.00
29045;BME280;16133;49.486;12.176;2023-03-22T08:59:38;97118.94;;;11.00;100.00
29045;BME280;16133;49.486;12.176;2023-03-22T09:02:04;97111.28;;;11.12;100.00
29045;BME280;16133;49.486;12.176;2023-03-22T09:04:29;97111.81;;;11.22;100.00
29045;BME280;16133;49.486;12.176;2023-03-22T09:06:55;97109.84;;;11.30;100.00
29045;BME280;16133;49.486;12.176;2023-03-22T09:09:20;97103.94;;;11.35;100.00
29045;BME280;16133;49.486;12.176;2023-03-22T09:11:46;97101.78;;;11.45;100.00
29045;BME280;16133;49.486;12.176;2023-03-22T09:14:11;97103.53;;;11.59;100.00
29045;BME280;16133;49.486;12.176;2023-03-22T09:16:37;97111.19;;;11.69;100.00
29045;BME280;16133;49.486;12.176;2023-03-22T09:19:02;97089.34;;;11.73;100.00
29045;BME280;16133;49.486;12.176;2023-03-22T09:21:28;97102.53;;;11.88;100.00
29045;BME280;16133;49.486;12.176;2023-03-22T09:23:56;97104.00;;;11.97;94.80
29045;BME280;16133;49.486;12.176;2023-03-22T09:26:22;97092.63;;;12.03;95.32
29045;BME280;16133;49.486;12.176;2023-03-22T09:28:48;97093.03;;;12.07;90.89
29045;BME280;16133;49.486;12.176;2023-03-22T09:31:14;97096.16;;;12.17;94.09
29045;BME280;16133;49.486;12.176;2023-03-22T09:33:39;97092.09;;;12.27;94.20
29045;BME280;16133;49.486;12.176;2023-03-22T09:36:06;97082.72;;;12.31;93.95
29045;BME280;16133;49.486;12.176;2023-03-22T09:38:32;97087.84;;;12.33;95.28
29045;BME280;16133;49.486;12.176;2023-03-22T09:41:02;97092.19;;;12.47;92.44
29045;BME280;16133;49.486;12.176;2023-03-22T09:43:35;97076.63;;;12.51;92.24
29045;BME280;16133;49.486;12.176;2023-03-22T09:46:04;97077.13;;;12.67;89.23
29045;BME280;16133;49.486;12.176;2023-03-22T09:48:32;97079.19;;;12.72;88.18
29045;BME280;16133;49.486;12.176;2023-03-22T09:51:01;97075.47;;;12.73;87.47
29045;BME280;16133;49.486;12.176;2023-03-22T09:53:28;97080.00;;;12.85;88.12
29045;BME280;16133;49.486;12.176;2023-03-22T09:56:02;97076.75;;;12.83;88.06
29045;BME280;16133;49.486;12.176;2023-03-22T09:59:12;97067.72;;;12.84;88.47
29045;BME280;16133;49.486;12.176;2023-03-22T10:01:52;97068.13;;;12.88;87.19
29045;BME280;16133;49.486;12.176;2023-03-22T10:04:42;97069.78;;;12.95;87.61
29045;BME280;16133;49.486;12.176;2023-03-22T10:07:24;97051.84;;;13.11;89.50
29045;BME280;16133;49.486;12.176;2023-03-22T10:10:08;97050.59;;;13.20;86.55
29045;BME280;16133;49.486;12.176;2023-03-22T10:15:17;97048.56;;;13.22;84.03
29045;BME280;16133;49.486;12.176;2023-03-22T10:17:50;97043.81;;;13.24;83.42
29045;BME280;16133;49.486;12.176;2023-03-22T10:20:27;97040.53;;;13.35;80.83
29045;BME280;16133;49.486;12.176;2023-03-22T10:22:57;97034.59;;;13.39;78.31
29045;BME280;16133;49.486;12.176;2023-03-22T10:25:34;97032.13;;;13.38;77.75
29045;BME280;16133;49.486;12.176;2023-03-22T10:28:01;97030.69;;;13.42;77.09
29045;BME280;16133;49.486;12.176;2023-03-22T10:30:29;97040.31;;;13.50;77.79
29045;BME280;16133;49.486;12.176;2023-03-22T10:33:04;97035.00;;;13.56;78.94
29045;BME280;16133;49.486;12.176;2023-03-22T10:35:37;97033.94;;;13.57;79.22
29045;BME280;16133;49.486;12.176;2023-03-22T10:38:05;97026.59;;;13.59;78.69
29045;BME280;16133;49.486;12.176;2023-03-22T10:40:33;97028.81;;;13.62;78.40
29045;BME280;16133;49.486;12.176;2023-03-22T10:43:16;97020.19;;;13.73;78.44
29045;BME280;16133;49.486;12.176;2023-03-22T10:45:44;97021.41;;;13.77;76.29
29045;BME280;16133;49.486;12.176;2023-03-22T10:48:23;97025.31;;;13.81;75.40
29045;BME280;16133;49.486;12.176;2023-03-22T10:50:50;97021.78;;;13.87;72.62
29045;BME280;16133;49.486;12.176;2023-03-22T10:53:23;97029.38;;;13.91;72.00
29045;BME280;16133;49.486;12.176;2023-03-22T10:55:50;97028.13;;;13.93;71.52
29045;BME280;16133;49.486;12.176;2023-03-22T10:58:20;97005.78;;;13.94;68.89
29045;BME280;16133;49.486;12.176;2023-03-22T11:00:56;97009.22;;;14.08;68.18
29045;BME280;16133;49.486;12.176;2023-03-22T11:06:18;97014.06;;;14.24;70.96
29045;BME280;16133;49.486;12.176;2023-03-22T11:08:53;97011.38;;;14.37;65.60
29045;BME280;16133;49.486;12.176;2023-03-22T11:11:25;97014.22;;;14.42;65.65
29045;BME280;16133;49.486;12.176;2023-03-22T11:14:07;97005.78;;;14.45;64.40
29045;BME280;16133;49.486;12.176;2023-03-22T11:19:36;96989.50;;;14.60;64.25
29045;BME280;16133;49.486;12.176;2023-03-22T11:22:05;96984.28;;;14.71;64.70
29045;BME280;16133;49.486;12.176;2023-03-22T11:24:32;96989.75;;;14.83;66.77
29045;BME280;16133;49.486;12.176;2023-03-22T11:27:05;96996.25;;;14.94;64.74
29045;BME280;16133;49.486;12.176;2023-03-22T11:29:45;96981.34;;;15.04;61.34
29045;BME280;16133;49.486;12.176;2023-03-22T11:32:38;96975.13;;;15.10;62.29
29045;BME280;16133;49.486;12.176;2023-03-22T11:37:41;96974.34;;;15.10;63.37
29045;BME280;16133;49.486;12.176;2023-03-22T11:40:13;96970.03;;;15.09;63.63
29045;BME280;16133;49.486;12.176;2023-03-22T11:42:39;96967.56;;;15.07;62.25
29045;BME280;16133;49.486;12.176;2023-03-22T11:45:06;96957.84;;;15.13;62.76
29045;BME280;16133;49.486;12.176;2023-03-22T11:47:36;96952.06;;;15.16;62.60
29045;BME280;16133;49.486;12.176;2023-03-22T11:50:07;96954.94;;;15.14;62.70
29045;BME280;16133;49.486;12.176;2023-03-22T11:52:34;96944.94;;;15.10;62.56
29045;BME280;16133;49.486;12.176;2023-03-22T11:55:00;96951.91;;;15.11;62.49
29045;BME280;16133;49.486;12.176;2023-03-22T11:57:28;96948.28;;;15.23;63.47
29045;BME280;16133;49.486;12.176;2023-03-22T12:00:05;96942.00;;;15.36;63.17
29045;BME280;16133;49.486;12.176;2023-03-22T12:02:49;96945.28;;;15.38;62.88
29045;BME280;16133;49.486;12.176;2023-03-22T12:05:37;96940.66;;;15.52;61.49
29045;BME280;16133;49.486;12.176;2023-03-22T12:08:20;96939.75;;;15.58;59.10
29045;BME280;16133;49.486;12.176;2023-03-22T12:10:54;96930.63;;;15.65;60.17
29045;BME280;16133;49.486;12.176;2023-03-22T12:13:47;96924.06;;;15.79;58.76
29045;BME280;16133;49.486;12.176;2023-03-22T12:16:20;96921.38;;;15.79;58.98
29045;BME280;16133;49.486;12.176;2023-03-22T12:19:01;96913.06;;;15.88;58.97
29045;BME280;16133;49.486;12.176;2023-03-22T12:21:28;96908.06;;;15.91;59.15
29045;BME280;16133;49.486;12.176;2023-03-22T12:23:57;96904.16;;;15.94;59.55
29045;BME280;16133;49.486;12.176;2023-03-22T12:26:26;96900.81;;;16.10;59.63
29045;BME280;16133;49.486;12.176;2023-03-22T12:29:00;96906.78;;;16.12;60.21
29045;BME280;16133;49.486;12.176;2023-03-22T12:31:30;96906.94;;;16.17;59.09
29045;BME280;16133;49.486;12.176;2023-03-22T12:33:59;96899.94;;;16.16;57.67
29045;BME280;16133;49.486;12.176;2023-03-22T12:36:39;96899.94;;;16.16;58.29
29045;BME280;16133;49.486;12.176;2023-03-22T12:39:09;96890.94;;;16.10;58.11
29045;BME280;16133;49.486;12.176;2023-03-22T12:41:40;96895.94;;;16.07;58.21
29045;BME280;16133;49.486;12.176;2023-03-22T12:44:17;96884.25;;;16.19;57.10
29045;BME280;16133;49.486;12.176;2023-03-22T12:49:36;96898.19;;;16.21;55.83
29045;BME280;16133;49.486;12.176;2023-03-22T12:54:39;96895.13;;;16.36;53.84
29045;BME280;16133;49.486;12.176;2023-03-22T12:57:06;96889.31;;;16.39;52.79
29045;BME280;16133;49.486;12.176;2023-03-22T12:59:32;96880.50;;;16.50;52.01
29045;BME280;16133;49.486;12.176;2023-03-22T13:02:17;96882.53;;;16.66;53.97
29045;BME280;16133;49.486;12.176;2023-03-22T13:22:28;96865.63;;;17.47;51.24
29045;BME280;16133;49.486;12.176;2023-03-22T13:30:47;96839.22;;;17.56;47.74
29045;BME280;16133;49.486;12.176;2023-03-22T13:33:18;96868.59;;;17.86;47.10
29045;BME280;16133;49.486;12.176;2023-03-22T13:35:48;96863.91;;;17.93;46.67
29045;BME280;16133;49.486;12.176;2023-03-22T13:38:21;96866.78;;;18.03;47.33
29045;BME280;16133;49.486;12.176;2023-03-22T13:59:10;96841.75;;;18.76;46.22
29045;BME280;16133;49.486;12.176;2023-03-22T14:01:40;96835.13;;;18.67;46.47
29045;BME280;16133;49.486;12.176;2023-03-22T14:04:15;96842.88;;;18.80;45.20
29045;BME280;16133;49.486;12.176;2023-03-22T14:06:50;96843.63;;;18.75;44.74
29045;BME280;16133;49.486;12.176;2023-03-22T14:09:30;96844.22;;;18.77;43.42
29045;BME280;16133;49.486;12.176;2023-03-22T14:12:06;96844.19;;;18.60;42.96
29045;BME280;16133;49.486;12.176;2023-03-22T14:14:38;96847.41;;;18.46;43.99
29045;BME280;16133;49.486;12.176;2023-03-22T14:17:25;96843.00;;;18.40;43.56
29045;BME280;16133;49.486;12.176;2023-03-22T14:19:55;96837.88;;;18.38;44.65
29045;BME280;16133;49.486;12.176;2023-03-22T14:22:31;96838.03;;;18.32;44.47
29045;BME280;16133;49.486;12.176;2023-03-22T14:24:58;96838.28;;;18.30;44.99
29045;BME280;16133;49.486;12.176;2023-03-22T14:27:25;96830.28;;;18.19;42.80
29045;BME280;16133;49.486;12.176;2023-03-22T14:29:51;96830.00;;;18.32;43.58
29045;BME280;16133;49.486;12.176;2023-03-22T14:32:24;96830.53;;;18.34;42.27
29045;BME280;16133;49.486;12.176;2023-03-22T14:35:06;96833.78;;;18.19;44.29
29045;BME280;16133;49.486;12.176;2023-03-22T14:37:32;96833.50;;;18.04;44.92
29045;BME280;16133;49.486;12.176;2023-03-22T14:39:57;96835.44;;;17.92;43.99
29045;BME280;16133;49.486;12.176;2023-03-22T14:42:28;96829.06;;;17.81;44.79
29045;BME280;16133;49.486;12.176;2023-03-22T14:45:05;96829.09;;;17.70;46.05